Terminal Aerodrome Forecast
Issued by NWS

Home | Current Version | Previous Version | Text Only | Print | Product List | Glossary On
Versions: 1 2 3 4 5 6 7 8 9 10 11 12 13 14 15
935
FTUS45 KVEF 270524
TAFVGT
TAF
KVGT 270524Z 2706/2806 29007KT P6SM FEW120
     FM271600 VRB05KT P6SM SCT120
     FM280300 26007KT P6SM FEW120=

USA.gov is the U.S. government's official web portal to all federal, state and local government web resources and services.